Main page
METAR-TAF:

METAR-TAF

Airports :

Vienna, Austria

Vienna International Airport

latitude: 48-07N, longitude: 016-34E, elevation: 183 m

Current weather observation

The report was made 21 minutes ago, at 23:20 UTC
Wind 8 kt from the Northwest
Temperature 20°C
Humidity 78%
Pressure 1021 hPa
Visibility 10 km or more
no clouds below 1500 m and no cumulonimbus

METAR: LOWW 162320Z 32008KT CAVOK 20/16 Q1021 NOSIG

Time: 01:41 (23:41 UTC)

Forecast

The report was made 26 minutes ago, at 23:15 UTC
Forecast valid from 17 at 00 UTC to 18 at 06 UTC
Wind 7 kt from the Northwest
Visibility 10 km or more
no clouds below 1500 m and no cumulonimbus
Becoming
from 17 at 09 UTC to 17 at 11 UTC
Wind 4 kt from the North

TAF: LOWW 162315Z 1700/1806 31007KT CAVOK TX30/1715Z TN18/1804Z BECMG 1709/1711 01004KT

Weather observations and forecasts of more than 4000 airports (METAR and TAF reports).

The available stations are represented by yellow and red dots on the map.

Hover mouse over dot to see the name of the station.

Then click to see weather observations and forecasts.

To change the map : click on the green buttons with a black cross to zoom in, on the green button with a dash to zoom out, or on the green arrows for adjacent maps.


METAR-TAF: